• Join FlightAware (Why Join?)
  • Login
  • US Flag GB Flag 
09:31 EDT


 

Airport Tracker/Info


-or-


 

Live Flight TrackerFlight Track Log ✈ SKW6345 ✈ 25-Jun-2013 ✈ KBZN - KSFO

Flight Track Log - Related Links

Times and Time Zones

All times are in EDT time to prevent confusion due to time zone crossing. See the SKW6345 flight status page for this flight to view local times or setup timezone preferences in your user account.

Time Position Orientation Groundspeed Altitude Reporting Facility
EDT Latitude Longitude Course Direction KTS MPH feet Rate Location/Type
17:18 45.8008 -111.2206 270° West 179 206 6,500  Level Salt Lake Center
17:19 45.7756 -111.2942 244° Southwest 207 238 8,800 1,980 Climbing Salt Lake Center
17:20 45.6857 -111.2096 290° West  Level FlightAware Approximate
17:20 45.7483 -111.3731 244° Southwest 213 245 10,700  Level Salt Lake Center
17:21 45.7079 -111.3449 278° West  Level FlightAware Approximate
17:21 45.7289 -111.4964 257° West 255 293 12,900  Level Salt Lake Center
17:22 45.7237 -111.4828 282° West  Level FlightAware Approximate
17:22 45.7217 -111.6064 265° West 284 327 15,100  Level Salt Lake Center
17:23 45.7333 -111.6212 270° West  Level FlightAware Approximate
17:23 45.6767 -111.7042 237° Southwest 292 336 16,500  Level Salt Lake Center
17:24 45.6306 -111.8069 237° Southwest 305 351 17,900 1,140 Climbing Salt Lake Center
17:25 45.5817 -111.9147 237° Southwest 319 367 18,900 1,200 Climbing Salt Lake Center
17:26 45.5322 -112.0261 238° Southwest 329 379 20,400 1,260 Climbing Salt Lake Center
17:27 45.4731 -112.1575 237° Southwest 330 380 21,600 1,080 Climbing Salt Lake Center
17:28 45.4203 -112.2697 236° Southwest 338 389 22,700 1,140 Climbing Salt Lake Center
17:29 45.3689 -112.3822 237° Southwest 340 391 24,000 1,140 Climbing Salt Lake Center
17:30 45.3189 -112.4925 237° Southwest 342 394 25,100 1,140 Climbing Salt Lake Center
17:31 45.2611 -112.6181 237° Southwest 341 392 26,400 900 Climbing Salt Lake Center
17:32 45.2108 -112.7233 236° Southwest 338 389 27,000 540 Climbing Salt Lake Center
17:33 45.1536 -112.8481 237° Southwest 339 390 27,600 480 Climbing Salt Lake Center
17:34 45.1031 -112.9567 237° Southwest 342 394 28,000 480 Climbing Salt Lake Center
17:35 45.0425 -113.0817 236° Southwest 343 395 28,600 480 Climbing Salt Lake Center
17:36 44.9919 -113.1892 236° Southwest 342 394 29,100 480 Climbing Salt Lake Center
17:37 44.9328 -113.3142 236° Southwest 342 394 29,700 480 Climbing Salt Lake Center
17:38 44.8825 -113.4189 236° Southwest 338 389 30,100 480 Climbing Salt Lake Center
17:39 44.8242 -113.5392 236° Southwest 334 384 30,700 480 Climbing Salt Lake Center
17:40 44.7767 -113.6408 237° Southwest 326 375 31,200 480 Climbing Salt Lake Center
17:41 44.7189 -113.7589 235° Southwest 328 377 31,800 360 Climbing Salt Lake Center
17:42 44.6719 -113.8597 237° Southwest 324 373 32,000 60 Climbing Salt Lake Center
17:43 44.6167 -113.9758 236° Southwest 327 376 32,000  Level Salt Lake Center
17:44 44.5636 -114.0814 235° Southwest 341 392 32,000  Level Salt Lake Center
17:45 44.5039 -114.2056 236° Southwest 344 396 32,000  Level Salt Lake Center
17:46 44.4517 -114.3139 236° Southwest 348 400 32,000  Level Salt Lake Center
17:47 44.3969 -114.4228 235° Southwest 353 406 32,000  Level Salt Lake Center
17:49 44.3333 -114.5503 235° Southwest 357 411 32,000  Level Salt Lake Center
17:50 44.2792 -114.6594 235° Southwest 358 412 32,000  Level Salt Lake Center
17:51 44.2156 -114.7853 235° Southwest 356 410 32,000  Level Salt Lake Center
17:52 44.1619 -114.8939 235° Southwest 355 409 32,000  Level Salt Lake Center
17:53 44.0978 -115.0200 235° Southwest 356 410 32,000  Level Salt Lake Center
17:54 44.0417 -115.1322 235° Southwest 362 417 32,000  Level Salt Lake Center
17:55 43.9775 -115.2575 235° Southwest 357 411 32,000  Level Salt Lake Center
17:56 43.9228 -115.3661 235° Southwest 356 410 32,000  Level Salt Lake Center
17:57 43.8583 -115.4903 234° Southwest 355 409 32,000  Level Salt Lake Center
17:58 43.8033 -115.5986 235° Southwest 358 412 32,000  Level Salt Lake Center
17:59 43.7478 -115.7058 234° Southwest 358 412 32,000  Level Salt Lake Center
18:00 43.6828 -115.8336 235° Southwest 362 417 32,000  Level Salt Lake Center
18:01 43.6272 -115.9408 234° Southwest 358 412 32,000  Level Salt Lake Center
18:02 43.5608 -116.0678 234° Southwest 362 417 32,000  Level Salt Lake Center
18:03 43.5047 -116.1761 234° Southwest 362 417 32,000  Level Salt Lake Center
18:04 43.4389 -116.3011 234° Southwest 361 415 32,000  Level Salt Lake Center
18:05 43.3817 -116.4083 234° Southwest 362 417 32,000  Level Salt Lake Center
18:06 43.3250 -116.5158 234° Southwest 363 418 32,000  Level Salt Lake Center
18:07 43.2578 -116.6403 233° Southwest 362 417 32,000  Level Salt Lake Center
18:08 43.2006 -116.7483 234° Southwest 364 419 32,000  Level Salt Lake Center
18:09 43.1344 -116.8722 234° Southwest 361 415 32,000  Level Salt Lake Center
18:10 43.0767 -116.9778 233° Southwest 360 414 32,000  Level Salt Lake Center
18:11 43.0106 -117.1025 234° Southwest 361 415 32,000  Level Salt Lake Center
18:12 42.9519 -117.2097 233° Southwest 366 421 32,000  Level Salt Lake Center
18:13 42.8836 -117.3331 233° Southwest 365 420 32,000  Level Salt Lake Center
18:14 42.8258 -117.4400 234° Southwest 367 422 32,000  Level Salt Lake Center
18:15 42.7683 -117.5469 234° Southwest 367 422 32,000  Level Salt Lake Center
18:16 42.6992 -117.6706 233° Southwest 371 427 32,000  Level Salt Lake Center
18:17 42.6406 -117.7772 233° Southwest 369 425 32,000  Level Salt Lake Center
18:18 42.5575 -117.8856 224° Southwest 377 434 32,000  Level Salt Lake Center
18:19 42.4639 -117.9453 205° Southwest 389 448 32,000  Level Salt Lake Center
18:21 42.3531 -118.0150 205° Southwest 393 452 32,000  Level Salt Lake Center
18:22 42.2575 -118.0719 204° Southwest 394 453 32,000  Level Salt Lake Center
18:23 42.1592 -118.1317 204° Southwest 391 450 32,000  Level Salt Lake Center
18:24 42.0472 -118.2011 205° Southwest 396 456 32,000  Level Salt Lake Center
18:25 41.9511 -118.2583 204° Southwest 396 456 32,000  Level Salt Lake Center
18:26 41.8381 -118.3261 204° Southwest 398 458 32,000  Level Salt Lake Center
18:27 41.7406 -118.3847 204° Southwest 401 461 32,000  Level Salt Lake Center
18:28 41.6261 -118.4525 204° Southwest 401 461 32,000  Level Salt Lake Center
18:29 41.5308 -118.5094 204° Southwest 396 456 32,000  Level Salt Lake Center
18:30 41.4178 -118.5767 204° Southwest 397 457 32,000  Level Salt Lake Center
18:31 41.3192 -118.6339 204° Southwest 401 461 32,000  Level Salt Lake Center
18:32 41.2214 -118.6911 204° Southwest 402 463 32,000  Level Salt Lake Center
18:33 41.1069 -118.7592 204° Southwest 402 463 32,000  Level Salt Lake Center
18:34 41.0097 -118.8150 203° Southwest 401 461 32,000  Level Salt Lake Center
18:35 40.8633 -118.8992 204° Southwest 404 465 32,000  Level Oakland Center
18:36 40.7644 -118.9544 203° Southwest 407 468 32,000  Level Oakland Center
18:37 40.6617 -119.0161 204° Southwest 406 467 32,000  Level Oakland Center
18:38 40.5756 -119.1094 219° Southwest 410 472 32,000  Level Oakland Center
18:39 40.5158 -119.2267 236° Southwest 390 449 32,000  Level Oakland Center
18:40 40.4561 -119.3461 237° Southwest 392 451 32,000  Level Oakland Center
18:41 40.3972 -119.4656 237° Southwest 391 450 32,000  Level Oakland Center
18:42 40.3269 -119.6072 237° Southwest 388 447 32,000 -120 Level Oakland Center
18:43 40.2661 -119.7272 236° Southwest 393 452 31,800 -960 Descending Oakland Center
18:44 40.2086 -119.8464 238° Southwest 392 451 30,100 -900 Descending Oakland Center
18:45 40.1489 -119.9622 236° Southwest 387 445 30,000 -60 Descending Oakland Center
18:46 40.0936 -120.0758 238° Southwest 375 432 30,000  Level Oakland Center
18:47 40.0358 -120.1872 236° Southwest 373 429 30,000  Level Oakland Center
18:48 39.9800 -120.2936 236° Southwest 372 428 30,000  Level Oakland Center
18:50 39.9100 -120.4303 236° Southwest 378 435 30,000  Level Oakland Center
18:51 39.8525 -120.5431 236° Southwest 376 433 30,000  Level Oakland Center
18:52 39.7939 -120.6569 236° Southwest 378 435 30,000  Level Oakland Center
18:53 39.7353 -120.7686 236° Southwest 375 432 30,000  Level Oakland Center
18:54 39.6764 -120.8814 236° Southwest 377 434 30,000  Level Oakland Center
18:55 39.6519 -121.0117 256° West 384 442 30,000  Level Oakland Center
18:56 39.6433 -121.1458 265° West 377 434 30,000  Level Oakland Center
18:57 39.6356 -121.2833 266° West 373 429 30,000  Level Oakland Center
18:58 39.6278 -121.4167 266° West 371 427 30,000  Level Oakland Center
18:59 39.6189 -121.5506 265° West 372 428 30,000  Level Oakland Center
19:00 39.5789 -121.6689 246° West 377 434 30,000  Level Oakland Center
19:01 39.5111 -121.7722 230° Southwest 376 433 30,000  Level Oakland Center
19:02 39.4208 -121.8703 220° Southwest 390 449 30,000  Level Oakland Center
19:03 39.3508 -121.9711 228° Southwest 377 434 30,000  Level Oakland Center
19:04 39.2842 -122.0733 230° Southwest 376 433 30,000  Level Oakland Center
19:05 39.2161 -122.1789 230° Southwest 381 438 30,000  Level Oakland Center
19:06 39.1500 -122.2847 231° Southwest 382 440 30,000 -120 Level Oakland Center
19:07 39.0842 -122.3894 231° Southwest 379 436 29,800 -600 Descending Oakland Center
19:08 39.0189 -122.4925 231° Southwest 374 430 28,800 -1,080 Descending Oakland Center
19:09 38.9072 -122.5478 201° Southwest 396 456 27,700 -1,080 Descending Oakland Center
19:10 38.8031 -122.5886 197° South 393 452 26,700 -1,020 Descending Oakland Center
19:11 38.6969 -122.6303 197° South 401 461 25,700 -1,020 Descending Oakland Center
19:12 38.5919 -122.6728 198° South 399 459 24,700 -840 Descending Oakland Center
19:13 38.4878 -122.7119 196° South 393 452 24,100 -720 Descending Oakland Center
19:14 38.3697 -122.7575 197° South 375 432 23,300 -1,680 Descending Oakland Center
19:15 38.2719 -122.7967 197° South 372 428 20,700 -2,520 Descending Oakland Center
19:16 38.1786 -122.8317 196° South 360 414 18,200 -2,460 Descending Oakland Center
19:17 38.0881 -122.8533 191° South 349 402 15,700 -2,460 Descending Oakland Center
19:18 38.0056 -122.7869 148° Southeast 357 411 13,200 -2,340 Descending Oakland Center
19:19 37.9328 -122.7089 140° Southeast 352 405 11,000 -1,080 Descending Oakland Center
19:20 37.8500 -122.6231 141° Southeast 335 386 11,000  Level Oakland Center
19:21 37.7939 -122.5614 139° Southeast 278 320 11,000  Level Oakland Center
19:22 37.7394 -122.5033 140° Southeast 262 302 11,000  Level Oakland Center
19:23 37.6833 -122.4500 143° Southeast 261 300 11,100  Climbing Northern Cal TRACON
19:24 37.6333 -122.3833 133° Southeast 260 299 11,000 -780 Descending Northern Cal TRACON
19:26 37.5167 -122.3000 150° Southeast 248 285 8,900 -960 Descending Northern Cal TRACON
19:27 37.4500 -122.2500 149° Southeast 234 269 8,200 -480 Descending Northern Cal TRACON
19:28 37.4000 -122.2833 208° Southwest 223 257 8,000 -60 Descending Northern Cal TRACON
19:29 37.3333 -122.3000 191° South 230 265 8,100 -480 Climbing Northern Cal TRACON
19:30 37.2833 -122.3333 208° Southwest 216 249 7,100 -960 Descending Northern Cal TRACON
19:31 37.2833 -122.4000 270° West 247 284 6,200 -540 Descending Northern Cal TRACON
19:32 37.3500 -122.4167 349° North 247 284 6,100 -120 Descending Northern Cal TRACON
19:33 37.4167 -122.4000 11° North 260 299 6,000  Descending Northern Cal TRACON
19:34 37.4333 -122.3167 76° East 245 282 6,100 -240 Climbing Northern Cal TRACON
19:36 37.4333 -122.1667 90° East 217 250 5,400 -720 Descending Northern Cal TRACON
19:38 37.5333 -122.1500 North 205 236 3,400 -960 Descending Northern Cal TRACON
19:39 37.5500 -122.2167 288° West 194 223 2,600 -840 Descending Northern Cal TRACON